Time;durP1;ratioP1;P1;durP2;ratioP2;P2;SDS_P1;SDS_P2;PMS_P1;PMS_P2;Temp;Humidity;BMP_temperature;BMP_pressure;BME280_temperature;BME280_humidity;BME280_pressure;Samples;Min_cycle;Max_cycle;Signal;HPM_P1;HPM_P2
2022/05/15 00:01:57;;;;;;;5.40;4.50;;;;;;;8.51;74.70;97530.75;109847;1250;70736;-69
2022/05/15 00:04:27;;;;;;;7.00;5.70;;;;;;;8.50;73.41;97530.79;110194;1248;68575;-68
2022/05/15 00:06:57;;;;;;;8.20;5.70;;;;;;;8.49;76.25;97533.61;110184;1248;68541;-69
2022/05/15 00:09:27;;;;;;;9.50;6.80;;;;;;;8.47;78.10;97537.05;110168;1249;59718;-69
2022/05/15 00:11:57;;;;;;;9.60;7.50;;;;;;;8.44;78.50;97537.23;110175;1249;59730;-69
2022/05/15 00:14:26;;;;;;;10.70;6.70;;;;;;;8.35;77.49;97535.13;110195;1248;70636;-69
2022/05/15 00:16:55;;;;;;;8.20;5.90;;;;;;;8.25;78.48;97534.94;110090;1250;66912;-68
2022/05/15 00:19:27;;;;;;;7.10;5.80;;;;;;;8.12;79.35;97534.96;110082;1249;69407;-68
2022/05/15 00:21:57;;;;;;;8.40;6.60;;;;;;;8.05;79.58;97541.14;109797;1250;59741;-68
2022/05/15 00:24:28;;;;;;;9.60;7.10;;;;;;;7.97;80.20;97544.73;110029;1250;59717;-70
2022/05/15 00:26:58;;;;;;;11.00;8.10;;;;;;;7.90;78.61;97545.84;109993;1250;70949;-70
2022/05/15 00:29:30;;;;;;;6.80;5.00;;;;;;;7.81;79.76;97546.05;110038;1250;67846;-68
2022/05/15 00:32:00;;;;;;;5.90;5.30;;;;;;;7.77;80.95;97544.27;110152;1248;69508;-71
2022/05/15 00:34:29;;;;;;;8.30;5.50;;;;;;;7.73;80.77;97540.11;110126;1249;59749;-68
2022/05/15 00:36:59;;;;;;;10.90;8.00;;;;;;;7.69;78.05;97539.64;110176;1250;59693;-68
2022/05/15 00:39:28;;;;;;;9.00;7.70;;;;;;;7.63;77.66;97536.34;110192;1249;71539;-68
2022/05/15 00:41:58;;;;;;;8.80;7.90;;;;;;;7.58;78.79;97538.74;110142;1248;69101;-69
2022/05/15 00:44:30;;;;;;;9.20;6.50;;;;;;;7.53;79.94;97539.89;110205;1249;68684;-70
2022/05/15 00:47:00;;;;;;;6.60;5.80;;;;;;;7.53;81.57;97544.79;110094;1249;59678;-68
2022/05/15 00:49:34;;;;;;;7.00;5.90;;;;;;;7.52;81.38;97542.04;109988;1249;59611;-68
2022/05/15 00:52:10;;;;;;;11.40;6.90;;;;;;;7.55;83.23;97545.86;110135;1249;70630;-68
2022/05/15 00:54:49;;;;;;;8.10;6.10;;;;;;;7.57;82.83;97547.10;110002;1250;67217;-69
2022/05/15 00:57:23;;;;;;;7.40;5.90;;;;;;;7.58;82.63;97546.91;110130;1250;69350;-69
2022/05/15 01:00:01;;;;;;;6.70;6.00;;;;;;;7.56;83.14;97546.47;110025;1250;59694;-68
2022/05/15 01:02:40;;;;;;;10.40;7.30;;;;;;;7.52;81.56;97553.63;110041;1248;60037;-70
2022/05/15 01:05:13;;;;;;;9.90;8.30;;;;;;;7.50;81.82;97552.05;110009;1250;71582;-69
2022/05/15 01:07:44;;;;;;;11.60;8.10;;;;;;;7.52;81.24;97544.47;109971;1251;68451;-71
2022/05/15 01:10:15;;;;;;;8.40;7.20;;;;;;;7.56;79.99;97544.59;109784;1251;69398;-69
2022/05/15 01:12:48;;;;;;;6.70;5.40;;;;;;;7.56;78.79;97542.31;109925;1250;59818;-68
2022/05/15 01:15:24;;;;;;;8.90;7.60;;;;;;;7.55;77.98;97542.41;110015;1250;59678;-68
2022/05/15 01:17:58;;;;;;;10.10;7.50;;;;;;;7.50;78.75;97544.79;109989;1250;70775;-69
2022/05/15 01:20:31;;;;;;;7.70;6.10;;;;;;;7.43;80.38;97547.98;109994;1250;67733;-69
2022/05/15 01:23:02;;;;;;;8.60;7.40;;;;;;;7.36;81.90;97551.12;109869;1249;69311;-68
2022/05/15 01:25:37;;;;;;;8.40;7.20;;;;;;;7.30;81.88;97550.07;109983;1250;59708;-68
2022/05/15 01:28:09;;;;;;;9.10;7.50;;;;;;;7.23;81.93;97550.65;109976;1250;59703;-69
2022/05/15 01:30:45;;;;;;;10.40;7.30;;;;;;;7.18;82.86;97549.92;109983;1250;71744;-70
2022/05/15 01:33:16;;;;;;;7.50;6.20;;;;;;;7.13;83.25;97547.55;110034;1250;67781;-70
2022/05/15 01:35:48;;;;;;;10.60;7.00;;;;;;;7.11;80.73;97544.90;109908;1250;68606;-68
2022/05/15 01:38:21;;;;;;;9.30;8.30;;;;;;;7.11;79.42;97550.46;109994;1250;59698;-68
2022/05/15 01:40:53;;;;;;;9.00;7.40;;;;;;;7.11;78.94;97548.02;109983;1250;59712;-68
2022/05/15 01:43:24;;;;;;;6.90;6.20;;;;;;;7.11;78.99;97549.06;110038;1250;71370;-70
2022/05/15 01:45:55;;;;;;;11.40;8.20;;;;;;;7.11;80.14;97555.30;109884;1251;68751;-69
2022/05/15 01:48:27;;;;;;;9.00;7.70;;;;;;;7.10;80.39;97554.52;109947;1250;69257;-69
2022/05/15 01:50:58;;;;;;;7.60;5.60;;;;;;;7.07;80.41;97549.99;109931;1250;59682;-69
2022/05/15 01:53:30;;;;;;;9.20;7.30;;;;;;;7.05;81.38;97555.00;110019;1250;59662;-69
2022/05/15 01:56:03;;;;;;;10.00;7.90;;;;;;;7.03;83.99;97561.18;109973;1250;70776;-71
2022/05/15 01:58:33;;;;;;;10.30;7.60;;;;;;;7.01;84.33;97563.68;109947;1250;67797;-70
2022/05/15 02:01:03;;;;;;;7.80;5.90;;;;;;;6.99;83.62;97563.45;109728;1250;69363;-69
2022/05/15 02:03:34;;;;;;;9.10;6.70;;;;;;;6.98;84.15;97560.91;109896;1250;59681;-69
2022/05/15 02:06:05;;;;;;;9.30;7.40;;;;;;;6.97;85.05;97560.94;110040;1250;59800;-69
2022/05/15 02:08:36;;;;;;;11.10;7.10;;;;;;;6.96;84.93;97559.45;110185;1249;71429;-68
2022/05/15 02:11:06;;;;;;;9.80;8.10;;;;;;;6.94;84.65;97552.85;109948;1250;68708;-68
2022/05/15 02:13:37;;;;;;;10.30;7.40;;;;;;;6.91;84.97;97554.20;109969;1250;68627;-70
2022/05/15 02:16:07;;;;;;;9.10;6.90;;;;;;;6.89;84.94;97554.13;110204;1249;59664;-68
2022/05/15 02:18:39;;;;;;;8.80;6.90;;;;;;;6.87;84.74;97554.77;110184;1248;59740;-68
2022/05/15 02:21:09;;;;;;;;;;;;;;;6.85;84.83;97558.66;109937;1250;69828;-67
2022/05/15 02:23:40;;;;;;;8.10;6.80;;;;;;;6.84;84.66;97557.19;110100;1250;68582;-69
2022/05/15 02:26:10;;;;;;;9.40;8.20;;;;;;;6.82;84.28;97557.48;109889;1250;69383;-69
2022/05/15 02:28:41;;;;;;;9.70;7.70;;;;;;;6.80;85.00;97554.65;109983;1249;59706;-69
2022/05/15 02:31:11;;;;;;;9.40;7.50;;;;;;;6.78;84.64;97558.54;109987;1250;59641;-68
2022/05/15 02:33:41;;;;;;;10.00;8.00;;;;;;;6.78;85.22;97560.80;109951;1250;70711;-68
2022/05/15 02:36:12;;;;;;;10.80;7.80;;;;;;;6.77;86.53;97564.83;109890;1250;67800;-68
2022/05/15 02:38:43;;;;;;;8.60;7.70;;;;;;;6.74;85.91;97564.83;109971;1250;68554;-69
2022/05/15 02:41:13;;;;;;;10.20;6.90;;;;;;;6.71;85.78;97570.56;110009;1249;59701;-69
2022/05/15 02:43:45;;;;;;;9.60;8.10;;;;;;;6.65;85.05;97572.80;110193;1250;59668;-69
2022/05/15 02:46:15;;;;;;;;;;;;;;;6.59;84.39;97571.17;109984;1250;70020;-69
2022/05/15 02:51:36;;;;;;;7.60;6.80;;;;;;;6.53;80.90;97573.23;109992;1250;68624;-69
2022/05/15 02:54:06;;;;;;;7.70;6.10;;;;;;;6.49;80.96;97571.91;109798;1250;59755;-69
2022/05/15 02:56:37;;;;;;;11.00;7.70;;;;;;;6.46;81.43;97569.80;110036;1249;59647;-69
2022/05/15 02:59:08;;;;;;;7.70;6.30;;;;;;;6.44;81.78;97569.59;110206;1249;71681;-69
2022/05/15 03:01:37;;;;;;;9.10;7.00;;;;;;;6.42;82.46;97569.34;109924;1250;68579;-71
2022/05/15 03:04:07;;;;;;;9.90;7.90;;;;;;;6.40;83.03;97572.73;109720;1250;68777;-69
2022/05/15 03:06:37;;;;;;;8.30;7.00;;;;;;;6.38;82.93;97575.28;109999;1250;59745;-69
2022/05/15 03:09:07;;;;;;;9.90;7.20;;;;;;;6.38;82.45;97576.65;109972;1250;59672;-69
2022/05/15 03:11:36;;;;;;;8.80;6.70;;;;;;;6.38;82.48;97572.98;109999;1250;70586;-69
2022/05/15 03:14:06;;;;;;;8.40;7.20;;;;;;;6.39;83.00;97570.56;109938;1250;68567;-68
2022/05/15 03:16:37;;;;;;;8.30;7.40;;;;;;;6.40;83.36;97575.17;109951;1250;68449;-68
2022/05/15 03:19:08;;;;;;;7.50;5.70;;;;;;;6.41;83.41;97573.55;109990;1248;59648;-68
2022/05/15 03:21:38;;;;;;;10.30;8.20;;;;;;;6.44;83.30;97573.77;109956;1249;59656;-69
2022/05/15 03:24:10;;;;;;;11.50;8.80;;;;;;;6.45;83.99;97578.84;110162;1250;71626;-69
2022/05/15 03:26:45;;;;;;;9.50;8.10;;;;;;;6.48;84.09;97578.90;109692;1250;68673;-70
2022/05/15 03:29:18;;;;;;;8.60;6.60;;;;;;;6.50;83.65;97579.64;109904;1250;69667;-70
2022/05/15 03:31:48;;;;;;;8.60;6.60;;;;;;;6.53;83.44;97581.20;110012;1250;60141;-69
2022/05/15 03:34:19;;;;;;;9.30;6.90;;;;;;;6.58;83.58;97581.30;110014;1250;59729;-69
2022/05/15 03:36:51;;;;;;;7.40;6.30;;;;;;;6.61;83.27;97583.04;110010;1250;71483;-68
2022/05/15 03:39:22;;;;;;;10.60;8.50;;;;;;;6.66;84.97;97585.89;110007;1250;67834;-69
2022/05/15 03:41:51;;;;;;;10.20;6.70;;;;;;;6.72;86.52;97587.66;109944;1249;68619;-69
2022/05/15 03:44:21;;;;;;;11.70;8.90;;;;;;;6.79;86.70;97593.84;110165;1249;59702;-69
2022/05/15 03:46:51;;;;;;;9.70;7.10;;;;;;;6.85;86.88;97599.58;109962;1249;59673;-69
2022/05/15 03:49:21;;;;;;;8.40;6.50;;;;;;;6.91;86.96;97601.67;110193;1249;70716;-69
2022/05/15 03:51:51;;;;;;;10.20;8.20;;;;;;;6.98;86.33;97608.20;110224;1247;67857;-69
2022/05/15 03:54:20;;;;;;;11.10;7.90;;;;;;;7.07;86.68;97606.32;109986;1250;69255;-70
2022/05/15 03:56:50;;;;;;;9.90;8.30;;;;;;;7.16;86.41;97606.34;110177;1249;59663;-69
2022/05/15 03:59:27;;;;;;;9.60;7.80;;;;;;;7.25;85.12;97610.52;109970;1250;59723;-70
2022/05/15 04:01:57;;;;;;;10.50;8.90;;;;;;;7.33;84.81;97615.09;110103;1250;70708;-71
2022/05/15 04:04:28;;;;;;;7.80;6.30;;;;;;;7.38;83.67;97616.73;109923;1250;68768;-71
2022/05/15 04:06:59;;;;;;;8.40;6.30;;;;;;;7.46;83.53;97611.92;109956;1250;69460;-69
2022/05/15 04:09:31;;;;;;;8.50;7.10;;;;;;;7.56;83.38;97613.24;110025;1250;59663;-68
2022/05/15 04:12:00;;;;;;;7.30;6.40;;;;;;;7.68;82.83;97617.26;109918;1250;59597;-71
2022/05/15 04:14:30;;;;;;;7.50;6.70;;;;;;;7.81;83.09;97620.67;110013;1250;70603;-69
2022/05/15 04:16:59;;;;;;;7.20;6.40;;;;;;;7.99;82.65;97619.10;110173;1248;68648;-69
2022/05/15 04:19:28;;;;;;;6.60;5.90;;;;;;;8.22;82.42;97619.79;109957;1250;68592;-69
2022/05/15 04:22:02;;;;;;;7.20;6.20;;;;;;;8.45;82.28;97622.29;110187;1249;59681;-69
2022/05/15 04:24:34;;;;;;;7.90;7.10;;;;;;;8.62;82.13;97622.28;110123;1250;59662;-69
2022/05/15 04:27:03;;;;;;;8.50;7.10;;;;;;;8.75;82.27;97625.98;110220;1249;70825;-69
2022/05/15 04:29:33;;;;;;;8.60;7.00;;;;;;;8.90;81.56;97630.98;110056;1250;68582;-68
2022/05/15 04:32:02;;;;;;;8.30;7.60;;;;;;;9.06;80.82;97632.58;110144;1250;68682;-68
2022/05/15 04:34:32;;;;;;;9.90;6.60;;;;;;;9.19;79.93;97632.61;109916;1250;59748;-69
2022/05/15 04:37:04;;;;;;;9.10;7.00;;;;;;;9.28;79.28;97636.05;109940;1250;59658;-71
2022/05/15 04:39:34;;;;;;;6.60;6.00;;;;;;;9.34;78.69;97640.19;110117;1250;71517;-68
2022/05/15 04:42:04;;;;;;;6.50;5.80;;;;;;;9.40;78.49;97640.64;110009;1250;68270;-69
2022/05/15 04:44:33;;;;;;;7.60;6.40;;;;;;;9.50;78.21;97642.48;110043;1249;69500;-69
2022/05/15 04:47:03;;;;;;;10.20;8.40;;;;;;;9.61;77.85;97643.13;109961;1250;59625;-68
2022/05/15 04:49:34;;;;;;;9.10;8.00;;;;;;;9.71;77.20;97645.08;110179;1248;59683;-68
2022/05/15 04:52:04;;;;;;;9.20;7.20;;;;;;;9.82;77.34;97647.31;110138;1249;70684;-68
2022/05/15 04:54:33;;;;;;;9.30;8.00;;;;;;;9.99;77.63;97648.25;110180;1250;68585;-68
2022/05/15 04:57:03;;;;;;;7.50;6.40;;;;;;;10.21;76.80;97647.84;110017;1250;69413;-70
2022/05/15 04:59:32;;;;;;;6.00;5.30;;;;;;;10.45;75.94;97642.45;110005;1250;59670;-69
2022/05/15 05:02:03;;;;;;;8.60;5.70;;;;;;;10.71;73.02;97643.23;109888;1250;59638;-68
2022/05/15 05:04:32;;;;;;;7.90;6.50;;;;;;;11.02;72.04;97641.05;109919;1250;70779;-69
2022/05/15 05:07:01;;;;;;;9.00;7.00;;;;;;;11.35;71.25;97643.21;110039;1250;66739;-69
2022/05/15 05:09:30;;;;;;;7.80;6.90;;;;;;;11.63;69.22;97643.77;110002;1250;69468;-71
2022/05/15 05:11:59;;;;;;;7.40;6.40;;;;;;;12.07;68.66;97642.98;110068;1248;59720;-69
2022/05/15 05:14:28;;;;;;;6.90;6.20;;;;;;;12.53;67.35;97643.49;110136;1249;59617;-69
2022/05/15 05:16:57;;;;;;;6.30;5.30;;;;;;;12.97;66.03;97645.48;110127;1248;71589;-69
2022/05/15 05:19:26;;;;;;;6.20;5.30;;;;;;;13.54;66.39;97645.92;110071;1250;68347;-69
2022/05/15 05:21:55;;;;;;;5.60;5.00;;;;;;;14.01;63.50;97648.85;110046;1250;68888;-70
2022/05/15 05:24:24;;;;;;;6.70;6.00;;;;;;;14.27;60.31;97651.98;109935;1250;59686;-69
2022/05/15 05:26:53;;;;;;;6.00;5.50;;;;;;;14.48;61.09;97652.50;110057;1249;59675;-71
2022/05/15 05:29:23;;;;;;;6.90;5.80;;;;;;;14.54;59.86;97649.05;109929;1250;70687;-70
2022/05/15 05:31:52;;;;;;;7.80;5.30;;;;;;;14.69;59.85;97651.71;109928;1250;66864;-69
2022/05/15 05:34:21;;;;;;;5.70;5.10;;;;;;;15.05;60.06;97647.26;110104;1249;68693;-70
2022/05/15 05:36:50;;;;;;;7.10;5.40;;;;;;;15.26;57.52;97641.75;109867;1250;60113;-69
2022/05/15 05:39:21;;;;;;;6.40;5.40;;;;;;;15.36;58.22;97641.36;110178;1248;59607;-70
2022/05/15 05:41:50;;;;;;;6.50;5.00;;;;;;;15.41;57.90;97643.17;110164;1250;71557;-69
2022/05/15 05:44:19;;;;;;;6.30;5.50;;;;;;;15.43;57.14;97645.66;110148;1250;67852;-71
2022/05/15 05:46:54;;;;;;;6.10;4.80;;;;;;;15.47;56.49;97640.70;110104;1250;68591;-75
2022/05/15 05:49:23;;;;;;;7.30;5.10;;;;;;;15.66;57.06;97642.70;109926;1250;59740;-73
2022/05/15 05:51:52;;;;;;;4.70;3.90;;;;;;;15.85;53.96;97640.34;110084;1248;59731;-70
2022/05/15 05:54:21;;;;;;;5.80;4.10;;;;;;;16.25;55.98;97638.45;110164;1250;72160;-70
2022/05/15 05:56:50;;;;;;;7.20;5.40;;;;;;;16.53;52.93;97634.77;110160;1249;68574;-70
2022/05/15 05:59:19;;;;;;;5.10;4.60;;;;;;;16.64;52.78;97640.75;110104;1249;69514;-70
2022/05/15 06:01:48;;;;;;;6.90;4.60;;;;;;;16.65;52.14;97637.30;110079;1250;59688;-70
2022/05/15 06:07:05;;;;;;;4.50;4.10;;;;;;;16.58;52.32;97640.43;109966;1250;71259;-72
2022/05/15 06:09:37;;;;;;;6.30;4.90;;;;;;;17.00;51.52;97642.28;110010;1250;68615;-69
2022/05/15 06:12:15;;;;;;;6.30;5.70;;;;;;;17.27;51.98;97639.19;109988;1249;68735;-70
2022/05/15 06:14:45;;;;;;;5.80;4.60;;;;;;;17.33;51.57;97640.38;110052;1250;59753;-69
2022/05/15 06:17:13;;;;;;;6.20;5.60;;;;;;;17.44;52.00;97642.09;110124;1250;60057;-70
2022/05/15 06:19:42;;;;;;;6.70;4.20;;;;;;;17.92;52.35;97637.93;109995;1250;71565;-70
2022/05/15 06:22:11;;;;;;;6.00;5.00;;;;;;;18.16;50.65;97639.81;109920;1250;68605;-70
2022/05/15 06:24:40;;;;;;;5.10;4.60;;;;;;;18.28;49.95;97636.83;110168;1249;68737;-67
2022/05/15 06:27:10;;;;;;;5.00;4.40;;;;;;;18.05;48.66;97641.63;110170;1249;59751;-68
2022/05/15 06:29:41;;;;;;;6.30;4.70;;;;;;;17.95;48.67;97641.52;109941;1250;59757;-70
2022/05/15 06:32:10;;;;;;;5.10;4.50;;;;;;;18.15;48.88;97643.39;109982;1250;70755;-70
2022/05/15 06:34:39;;;;;;;4.90;4.00;;;;;;;18.26;47.18;97642.11;110092;1250;67860;-69
2022/05/15 06:37:07;;;;;;;4.10;3.80;;;;;;;18.32;44.97;97642.11;109934;1250;69463;-70
2022/05/15 06:39:36;;;;;;;6.30;4.40;;;;;;;18.65;46.00;97638.70;110023;1250;59722;-70
2022/05/15 06:42:06;;;;;;;5.70;3.80;;;;;;;18.71;45.00;97641.45;110042;1248;59634;-70
2022/05/15 06:44:39;;;;;;;5.10;4.30;;;;;;;18.77;44.12;97642.61;109900;1250;72169;-72
2022/05/15 06:47:08;;;;;;;6.30;4.60;;;;;;;18.95;44.53;97641.32;109929;1250;68639;-70
2022/05/15 06:49:37;;;;;;;4.00;3.60;;;;;;;19.11;44.62;97644.61;109979;1250;69392;-71
2022/05/15 06:52:07;;;;;;;6.20;4.80;;;;;;;19.25;43.80;97641.88;110163;1250;59699;-70
2022/05/15 06:54:36;;;;;;;6.60;3.80;;;;;;;19.65;42.98;97646.55;109914;1248;59745;-69
2022/05/15 06:59:53;;;;;;;4.40;4.00;;;;;;;20.41;41.07;97639.77;110195;1247;67641;-70
2022/05/15 07:02:27;;;;;;;5.70;4.00;;;;;;;20.68;41.13;97641.20;110140;1250;69402;-70
2022/05/15 07:04:56;;;;;;;4.80;3.90;;;;;;;20.92;40.46;97641.20;109803;1250;59744;-72
2022/05/15 07:07:25;;;;;;;4.90;3.60;;;;;;;21.36;40.03;97641.48;109921;1250;59669;-71
2022/05/15 07:09:54;;;;;;;4.60;4.00;;;;;;;21.42;39.23;97641.16;109885;1249;71563;-71
2022/05/15 07:12:25;;;;;;;6.70;4.50;;;;;;;21.34;39.48;97642.78;110103;1249;68555;-72
2022/05/15 07:14:54;;;;;;;4.30;3.90;;;;;;;21.02;39.30;97639.94;110169;1248;68670;-70
2022/05/15 07:17:23;;;;;;;5.70;4.40;;;;;;;21.50;39.98;97643.27;109904;1248;59644;-72
2022/05/15 07:19:52;;;;;;;4.90;4.10;;;;;;;21.84;39.53;97642.26;109922;1250;59719;-71
2022/05/15 07:22:21;;;;;;;6.60;5.20;;;;;;;22.23;39.29;97641.36;110114;1248;71426;-72
2022/05/15 07:24:50;;;;;;;6.60;6.00;;;;;;;22.10;38.76;97641.95;110007;1250;68587;-69
2022/05/15 07:27:19;;;;;;;4.70;4.20;;;;;;;21.69;39.15;97644.92;109844;1251;68644;-71
2022/05/15 07:29:53;;;;;;;5.90;5.30;;;;;;;21.89;39.61;97643.73;109807;1250;59742;-71
2022/05/15 07:32:22;;;;;;;6.80;5.70;;;;;;;22.05;39.59;97638.65;110081;1250;59755;-70
2022/05/15 07:34:51;;;;;;;9.50;5.10;;;;;;;21.93;39.22;97639.32;110080;1250;70903;-70
2022/05/15 07:37:20;;;;;;;7.30;6.20;;;;;;;21.99;39.22;97638.95;110097;1250;67813;-69
2022/05/15 07:39:49;;;;;;;7.30;5.90;;;;;;;22.20;38.58;97638.86;110055;1248;70677;-71
2022/05/15 07:42:18;;;;;;;5.50;4.90;;;;;;;22.02;38.55;97639.30;110009;1250;59758;-72
2022/05/15 07:44:47;;;;;;;8.30;5.50;;;;;;;22.37;38.23;97640.98;109868;1250;59618;-70
2022/05/15 07:47:16;;;;;;;6.30;5.40;;;;;;;22.85;37.71;97638.42;109843;1250;71672;-70
2022/05/15 07:49:46;;;;;;;6.60;4.90;;;;;;;23.27;37.61;97637.98;109823;1252;67840;-72
2022/05/15 07:52:16;;;;;;;5.90;4.60;;;;;;;23.43;36.62;97641.57;109656;1250;70194;-71
2022/05/15 07:54:45;;;;;;;5.70;5.20;;;;;;;24.09;37.39;97644.64;110142;1249;59675;-72
2022/05/15 07:57:13;;;;;;;8.30;5.40;;;;;;;24.61;34.56;97641.02;110125;1248;59737;-70
2022/05/15 07:59:43;;;;;;;5.30;4.40;;;;;;;24.50;34.25;97634.16;109905;1249;70621;-70
2022/05/15 08:02:13;;;;;;;5.00;4.50;;;;;;;25.06;34.33;97641.98;109753;1250;68872;-71
2022/05/15 08:10:16;;;;;;;4.30;2.40;;;;;;;25.97;30.43;97644.98;110141;1249;59672;-72
2022/05/15 08:12:46;;;;;;;4.50;3.60;;;;;;;26.22;30.36;97644.96;110173;1250;70968;-73
2022/05/15 08:15:15;;;;;;;6.20;5.60;;;;;;;25.83;30.35;97646.05;110124;1250;68615;-73
2022/05/15 08:17:48;;;;;;;7.00;6.30;;;;;;;26.00;31.74;97648.15;110174;1249;69433;-72
2022/05/15 08:25:52;;;;;;;6.80;6.00;;;;;;;26.59;30.95;97636.77;109955;1250;70825;-70
2022/05/15 08:28:21;;;;;;;5.70;5.10;;;;;;;25.81;31.17;97637.98;110122;1250;68140;-70
2022/05/15 08:30:50;;;;;;;7.70;7.00;;;;;;;25.24;31.62;97650.27;109872;1250;68708;-72
2022/05/15 08:33:21;;;;;;;9.10;8.20;;;;;;;25.31;31.45;97644.42;110185;1250;59742;-71
2022/05/15 08:35:51;;;;;;;11.50;10.40;;;;;;;24.96;32.54;97645.46;109968;1250;59662;-70
2022/05/15 08:38:22;;;;;;;8.70;7.20;;;;;;;24.38;32.53;97644.88;109895;1250;71466;-72
2022/05/15 08:41:24;;;;;;;10.50;9.50;;;;;;;23.85;33.95;97649.92;110164;1250;68462;-71
2022/05/15 08:44:12;;;;;;;9.50;7.60;;;;;;;23.48;34.90;97650.39;109888;1250;68693;-71
2022/05/15 08:46:49;;;;;;;8.60;7.30;;;;;;;23.79;34.45;97646.93;110150;1249;59737;-71
2022/05/15 08:49:20;;;;;;;7.60;6.90;;;;;;;24.37;34.15;97642.80;110176;1250;59671;-70
2022/05/15 08:52:16;;;;;;;9.80;7.50;;;;;;;24.97;32.68;97641.69;110294;1249;71520;-72
2022/05/15 08:55:01;;;;;;;7.80;6.10;;;;;;;25.45;31.43;97639.98;109964;1250;68688;-69
2022/05/15 08:57:57;;;;;;;6.50;5.90;;;;;;;25.76;33.12;97638.91;109975;1250;68624;-72
2022/05/15 09:00:43;;;;;;;5.70;4.30;;;;;;;26.36;30.10;97640.45;109803;1249;59761;-70
2022/05/15 09:03:26;;;;;;;4.30;2.90;;;;;;;26.66;27.26;97643.00;109931;1250;59664;-70
2022/05/15 09:06:07;;;;;;;3.50;3.20;;;;;;;27.01;28.57;97639.84;109888;1250;71960;-71
2022/05/15 09:09:01;;;;;;;4.00;3.50;;;;;;;27.76;28.20;97641.73;109893;1250;67771;-74
2022/05/15 09:11:48;;;;;;;4.60;3.30;;;;;;;27.62;27.98;97641.89;109920;1250;68496;-79
2022/05/15 09:14:38;;;;;;;4.80;3.50;;;;;;;27.86;27.91;97642.72;109822;1250;59736;-70
2022/05/15 09:17:22;;;;;;;5.90;3.60;;;;;;;28.34;28.03;97641.70;109830;1251;59732;-70
2022/05/15 09:20:00;;;;;;;3.60;3.00;;;;;;;28.93;26.85;97633.32;110163;1249;70764;-73
2022/05/15 09:22:39;;;;;;;4.00;3.00;;;;;;;29.20;26.12;97634.31;109938;1250;69902;-72
2022/05/15 09:25:16;;;;;;;3.20;2.80;;;;;;;29.67;26.04;97631.95;109814;1250;69390;-70
2022/05/15 09:28:16;;;;;;;5.10;3.80;;;;;;;29.48;24.68;97631.52;109946;1250;59681;-69
2022/05/15 09:30:50;;;;;;;4.10;2.90;;;;;;;29.44;24.91;97632.46;110013;1248;59706;-73
2022/05/15 09:33:46;;;;;;;3.30;2.70;;;;;;;29.38;24.97;97627.23;110120;1250;70133;-72
2022/05/15 09:36:41;;;;;;;3.50;2.40;;;;;;;28.83;22.11;97624.93;110113;1249;68499;-71
2022/05/15 09:39:46;;;;;;;3.80;2.50;;;;;;;29.36;22.50;97623.17;110193;1248;68659;-71
2022/05/15 09:45:14;;;;;;;2.60;2.40;;;;;;;30.51;22.88;97623.59;110013;1250;59738;-71
2022/05/15 09:47:59;;;;;;;3.70;3.40;;;;;;;30.56;21.94;97619.19;110182;1250;70830;-70
2022/05/15 09:50:55;;;;;;;3.20;2.50;;;;;;;30.12;22.31;97613.55;110026;1250;67870;-71
2022/05/15 09:53:49;;;;;;;3.40;2.30;;;;;;;30.07;23.25;97611.78;109940;1250;69523;-70
2022/05/15 09:56:18;;;;;;;4.20;2.70;;;;;;;30.60;22.36;97612.34;110077;1249;59701;-72
2022/05/15 09:59:05;;;;;;;3.90;3.20;;;;;;;29.30;21.79;97613.73;109708;1250;555220;-70
2022/05/15 10:01:40;;;;;;;4.60;3.40;;;;;;;28.96;22.87;97603.09;110116;1249;71620;-72
2022/05/15 10:04:27;;;;;;;2.50;2.30;;;;;;;28.58;23.12;97602.31;110054;1250;68605;-73
2022/05/15 10:07:00;;;;;;;3.20;2.40;;;;;;;29.26;22.93;97606.05;110203;1248;68877;-71
2022/05/15 10:09:35;;;;;;;3.30;2.80;;;;;;;29.34;23.13;97605.39;109956;1250;59729;-71
2022/05/15 10:12:27;;;;;;;3.90;3.00;;;;;;;28.74;22.97;97602.01;110148;1249;59636;-73
2022/05/15 10:15:16;;;;;;;5.00;2.60;;;;;;;28.80;22.66;97595.08;110159;1249;71621;-71
2022/05/15 10:17:55;;;;;;;10.60;9.20;;;;;;;27.75;23.26;97600.26;109949;1250;68606;-71
2022/05/15 10:20:34;;;;;;;5.30;4.80;;;;;;;27.77;24.83;97600.30;110134;1250;69378;-72
2022/05/15 10:23:25;;;;;;;8.00;6.50;;;;;;;27.54;24.66;97597.52;109837;1247;59733;-70
2022/05/15 10:26:03;;;;;;;4.50;3.70;;;;;;;27.49;24.96;97599.90;110216;1250;59606;-73
2022/05/15 10:29:22;;;;;;;3.60;2.40;;;;;;;27.35;24.52;97600.80;109968;1250;70868;-71
2022/05/15 10:32:01;;;;;;;4.30;2.40;;;;;;;26.46;25.06;97594.05;109385;1256;68190;-70
2022/05/15 10:34:31;;;;;;;5.40;3.40;;;;;;;26.31;26.00;97595.59;109308;1256;69571;-70
2022/05/15 10:37:38;;;;;;;4.60;3.20;;;;;;;25.78;26.10;97590.89;109401;1256;59806;-71
2022/05/15 10:40:34;;;;;;;3.90;3.30;;;;;;;26.44;26.46;97587.29;109387;1256;59728;-73
2022/05/15 10:43:39;;;;;;;9.30;8.40;;;;;;;27.07;25.99;97589.45;109279;1257;71576;-72
2022/05/15 10:46:15;;;;;;;21.50;19.20;;;;;;;27.16;25.60;97594.34;109354;1256;69936;-71
2022/05/15 10:49:09;;;;;;;7.90;6.90;;;;;;;27.19;25.64;97597.84;109418;1256;69511;-71
2022/05/15 10:51:53;;;;;;;11.60;9.90;;;;;;;27.27;25.42;97593.68;109333;1256;59858;-71
2022/05/15 10:57:58;;;;;;;51.00;44.60;;;;;;;27.00;25.84;97585.84;109382;1256;71738;-71
2022/05/15 11:00:41;;;;;;;7.90;6.50;;;;;;;26.64;27.30;97583.13;109394;1256;68621;-71
2022/05/15 11:03:24;;;;;;;5.50;4.70;;;;;;;26.48;26.40;97580.21;109399;1256;69601;-72
2022/05/15 11:06:07;;;;;;;3.50;2.80;;;;;;;26.25;26.33;97583.35;109380;1256;59813;-71
2022/05/15 11:08:58;;;;;;;5.00;4.20;;;;;;;26.16;26.89;97583.27;109753;1250;59718;-71
2022/05/15 11:11:59;;;;;;;3.10;2.50;;;;;;;26.29;27.02;97581.16;109871;1250;71571;-72
2022/05/15 11:14:46;;;;;;;4.00;3.60;;;;;;;26.44;26.90;97577.87;109937;1250;68671;-70
2022/05/15 11:17:51;;;;;;;4.70;4.30;;;;;;;26.99;26.58;97580.02;110094;1250;69197;-70
2022/05/15 11:20:26;;;;;;;10.20;9.20;;;;;;;27.20;25.70;97580.55;110056;1250;59739;-69
2022/05/15 11:23:11;;;;;;;11.70;10.50;;;;;;;26.93;26.36;97583.41;109982;1250;59718;-71
2022/05/15 11:25:50;;;;;;;4.30;3.70;;;;;;;27.10;25.95;97580.25;109938;1250;71545;-70
2022/05/15 11:28:30;;;;;;;11.50;9.70;;;;;;;26.69;25.59;97576.33;109821;1251;68827;-73
2022/05/15 11:31:09;;;;;;;8.50;6.50;;;;;;;26.50;26.34;97573.08;109964;1250;69491;-71
2022/05/15 11:33:48;;;;;;;3.90;2.80;;;;;;;26.80;25.23;97571.32;110045;1250;59754;-71
2022/05/15 11:36:39;;;;;;;4.80;3.10;;;;;;;27.31;25.08;97564.35;109926;1250;59606;-71
2022/05/15 11:39:14;;;;;;;4.00;3.30;;;;;;;27.58;24.49;97565.98;109887;1251;71573;-71
2022/05/15 11:41:43;;;;;;;14.90;12.60;;;;;;;28.00;25.07;97567.20;109931;1250;67720;-71
2022/05/15 11:44:18;;;;;;;5.00;3.90;;;;;;;28.49;23.92;97563.19;109851;1250;69454;-70
2022/05/15 11:46:46;;;;;;;3.70;3.40;;;;;;;28.96;24.06;97561.47;109862;1251;59741;-71
2022/05/15 11:49:36;;;;;;;4.10;3.60;;;;;;;28.89;24.10;97556.45;109857;1250;59664;-72
2022/05/15 11:52:08;;;;;;;5.60;3.30;;;;;;;28.71;24.29;97553.88;109894;1251;70959;-71
2022/05/15 11:54:53;;;;;;;4.90;3.60;;;;;;;28.49;24.65;97551.33;109905;1251;68632;-71
2022/05/15 11:57:45;;;;;;;3.50;3.00;;;;;;;28.36;24.11;97558.20;109781;1250;67841;-69
2022/05/15 12:00:25;;;;;;;3.30;2.80;;;;;;;28.26;24.43;97557.64;109853;1250;59806;-71
2022/05/15 12:02:55;;;;;;;;;;;;;;;28.11;24.44;97555.96;109925;1251;59674;-71
2022/05/15 12:05:58;;;;;;;5.50;3.60;;;;;;;27.80;25.24;97550.17;109792;1251;71586;-70
2022/05/15 12:08:31;;;;;;;3.10;2.80;;;;;;;27.47;25.84;97553.58;110142;1250;68204;-70
2022/05/15 12:11:10;;;;;;;2.90;2.50;;;;;;;27.68;25.21;97553.27;110182;1250;69536;-69
2022/05/15 12:13:42;;;;;;;3.40;3.00;;;;;;;26.70;24.85;97545.41;109861;1251;59632;-72
2022/05/15 12:16:21;;;;;;;3.90;3.00;;;;;;;26.89;25.89;97545.34;109995;1251;59684;-71
2022/05/15 12:19:20;;;;;;;4.00;3.00;;;;;;;26.81;26.02;97549.29;110059;1250;70848;-72
2022/05/15 12:21:58;;;;;;;3.70;3.20;;;;;;;26.86;25.86;97547.42;109903;1250;67797;-72
2022/05/15 12:24:33;;;;;;;4.90;3.10;;;;;;;26.93;25.57;97546.58;109885;1250;69482;-72
2022/05/15 12:27:19;;;;;;;3.50;3.20;;;;;;;26.85;25.70;97550.90;109923;1251;60078;-72
2022/05/15 12:29:58;;;;;;;3.40;2.40;;;;;;;26.90;25.53;97546.41;110156;1250;59642;-73